createdAt,value
2018-12-14T00:00:41.262Z,1019.23
2018-12-14T00:01:41.250Z,1019.23
2018-12-14T00:02:41.240Z,1019.24
2018-12-14T00:03:41.233Z,1019.21
2018-12-14T00:04:41.227Z,1019.24
2018-12-14T00:05:41.204Z,1019.25
2018-12-14T00:06:41.194Z,1019.28
2018-12-14T00:07:41.207Z,1019.27
2018-12-14T00:08:41.178Z,1019.29
2018-12-14T00:09:41.170Z,1019.26
2018-12-14T00:10:41.148Z,1019.28
2018-12-14T00:11:45.513Z,1019.31
2018-12-14T00:12:41.125Z,1019.25
2018-12-14T00:13:41.118Z,1019.21
2018-12-14T00:14:41.114Z,1019.24
2018-12-14T00:15:41.092Z,1019.21
2018-12-14T00:16:41.080Z,1019.28
2018-12-14T00:17:41.068Z,1019.26
2018-12-14T00:18:41.057Z,1019.30
2018-12-14T00:19:41.057Z,1019.27
2018-12-14T00:20:41.035Z,1019.25
2018-12-14T00:21:41.023Z,1019.26
2018-12-14T00:22:41.011Z,1019.25
2018-12-14T00:23:41.000Z,1019.29
2018-12-14T00:24:41.004Z,1019.26
2018-12-14T00:25:40.978Z,1019.25
2018-12-14T00:26:40.966Z,1019.36
2018-12-14T00:27:40.959Z,1019.30
2018-12-14T00:28:40.946Z,1019.26
2018-12-14T00:29:40.943Z,1019.28
2018-12-14T00:30:40.921Z,1019.35
2018-12-14T00:31:40.910Z,1019.33
2018-12-14T00:32:40.898Z,1019.32
2018-12-14T00:33:40.889Z,1019.31
2018-12-14T00:34:40.912Z,1019.30
2018-12-14T00:35:40.864Z,1019.39
2018-12-14T00:36:40.855Z,1019.39
2018-12-14T00:37:40.841Z,1019.36
2018-12-14T00:38:40.833Z,1019.38
2018-12-14T00:39:40.819Z,1019.38
2018-12-14T00:40:40.819Z,1019.45
2018-12-14T00:41:40.801Z,1019.40
2018-12-14T00:42:40.785Z,1019.45
2018-12-14T00:43:40.774Z,1019.46
2018-12-14T00:44:40.763Z,1019.48
2018-12-14T00:45:40.764Z,1019.43
2018-12-14T00:46:40.740Z,1019.49
2018-12-14T00:47:40.729Z,1019.49
2018-12-14T00:48:40.717Z,1019.49
2018-12-14T00:49:40.777Z,1019.52
2018-12-14T00:50:40.742Z,1019.50
2018-12-14T00:51:40.852Z,1019.45
2018-12-14T00:52:40.848Z,1019.47
2018-12-14T00:53:41.660Z,1019.49
2018-12-14T00:54:40.846Z,1019.51
2018-12-14T00:55:40.817Z,1019.50
2018-12-14T00:56:40.774Z,1019.54
2018-12-14T00:57:40.737Z,1019.48
2018-12-14T00:58:40.604Z,1019.49
2018-12-14T00:59:40.594Z,1019.56
2018-12-14T01:00:40.595Z,1019.53
2018-12-14T01:01:40.571Z,1019.58
2018-12-14T01:02:40.563Z,1019.55
2018-12-14T01:03:40.550Z,1019.54
2018-12-14T01:04:40.544Z,1019.60
2018-12-14T01:05:40.557Z,1019.62
2018-12-14T01:06:40.515Z,1019.62
2018-12-14T01:07:40.693Z,1019.62
2018-12-14T01:08:40.553Z,1019.68
2018-12-14T01:09:40.656Z,1019.66
2018-12-14T01:10:40.471Z,1019.62
2018-12-14T01:11:40.528Z,1019.64
2018-12-14T01:12:40.448Z,1019.65
2018-12-14T01:13:40.437Z,1019.65
2018-12-14T01:14:40.425Z,1019.67
2018-12-14T01:15:40.413Z,1019.68
2018-12-14T01:16:40.413Z,1019.68
2018-12-14T01:17:40.391Z,1019.67
2018-12-14T01:18:40.380Z,1019.65
2018-12-14T01:19:40.370Z,1019.67
2018-12-14T01:20:40.357Z,1019.68
2018-12-14T01:21:40.360Z,1019.65
2018-12-14T01:22:40.334Z,1019.68
2018-12-14T01:23:40.324Z,1019.68
2018-12-14T01:24:40.320Z,1019.72
2018-12-14T01:25:40.300Z,1019.69
2018-12-14T01:26:40.300Z,1019.69
2018-12-14T01:27:40.280Z,1019.69
2018-12-14T01:28:40.266Z,1019.69
2018-12-14T01:29:40.255Z,1019.67
2018-12-14T01:30:40.244Z,1019.65
2018-12-14T01:31:40.245Z,1019.66
2018-12-14T01:32:40.220Z,1019.63
2018-12-14T01:33:40.209Z,1019.67
2018-12-14T01:34:40.199Z,1019.67
2018-12-14T01:35:40.188Z,1019.61
2018-12-14T01:36:40.190Z,1019.62
2018-12-14T01:37:40.166Z,1019.60
2018-12-14T01:38:40.156Z,1019.60
2018-12-14T01:39:40.145Z,1019.61
2018-12-14T01:40:40.130Z,1019.64
2018-12-14T01:41:40.164Z,1019.67
2018-12-14T01:42:40.108Z,1019.64
2018-12-14T01:43:40.097Z,1019.66
2018-12-14T01:44:40.085Z,1019.68
2018-12-14T01:45:40.076Z,1019.65
2018-12-14T01:46:40.076Z,1019.63
2018-12-14T01:47:40.053Z,1019.60
2018-12-14T01:48:40.041Z,1019.62
2018-12-14T01:49:40.032Z,1019.63
2018-12-14T01:50:40.019Z,1019.65
2018-12-14T01:51:40.017Z,1019.61
2018-12-14T01:52:39.996Z,1019.62
2018-12-14T01:53:39.985Z,1019.61
2018-12-14T01:54:39.977Z,1019.59
2018-12-14T01:55:39.961Z,1019.55
2018-12-14T01:56:39.961Z,1019.58
2018-12-14T01:57:39.940Z,1019.56
2018-12-14T01:58:39.929Z,1019.57
2018-12-14T01:59:39.920Z,1019.50
2018-12-14T02:00:39.906Z,1019.54
2018-12-14T02:01:40.195Z,1019.55
2018-12-14T02:02:39.881Z,1019.56
2018-12-14T02:03:39.872Z,1019.58
2018-12-14T02:04:39.859Z,1019.57
2018-12-14T02:05:39.847Z,1019.65
2018-12-14T02:06:39.838Z,1019.63
2018-12-14T02:07:39.835Z,1019.62
2018-12-14T02:08:39.817Z,1019.64
2018-12-14T02:09:39.802Z,1019.60
2018-12-14T02:10:39.793Z,1019.61
2018-12-14T02:11:39.789Z,1019.63
2018-12-14T02:12:39.780Z,1019.63
2018-12-14T02:13:39.758Z,1019.61
2018-12-14T02:14:39.747Z,1019.56
2018-12-14T02:15:39.735Z,1019.64
2018-12-14T02:16:39.724Z,1019.58
2018-12-14T02:17:39.725Z,1019.63
2018-12-14T02:18:39.702Z,1019.61
2018-12-14T02:19:39.694Z,1019.59
2018-12-14T02:20:39.679Z,1019.61
2018-12-14T02:21:39.672Z,1019.56
2018-12-14T02:22:39.667Z,1019.58
2018-12-14T02:23:39.647Z,1019.55
2018-12-14T02:24:39.635Z,1019.56
2018-12-14T02:25:39.623Z,1019.57
2018-12-14T02:26:39.612Z,1019.56
2018-12-14T02:27:39.612Z,1019.55
2018-12-14T02:28:39.590Z,1019.58
2018-12-14T02:29:39.580Z,1019.55
2018-12-14T02:30:39.579Z,1019.58
2018-12-14T02:31:39.557Z,1019.55
2018-12-14T02:32:39.557Z,1019.56
2018-12-14T02:33:39.534Z,1019.56
2018-12-14T02:34:39.525Z,1019.58
2018-12-14T02:35:39.514Z,1019.56
2018-12-14T02:36:39.507Z,1019.55
2018-12-14T02:37:39.502Z,1019.57
2018-12-14T02:38:39.480Z,1019.59
2018-12-14T02:39:39.473Z,1019.60
2018-12-14T02:40:39.457Z,1019.59
2018-12-14T02:41:39.448Z,1019.54
2018-12-14T02:42:39.473Z,1019.57
2018-12-14T02:43:39.424Z,1019.56
2018-12-14T02:44:39.414Z,1019.58
2018-12-14T02:45:39.403Z,1019.56
2018-12-14T02:46:39.393Z,1019.68
2018-12-14T02:47:39.380Z,1019.58
2018-12-14T02:48:39.380Z,1019.54
2018-12-14T02:49:39.933Z,1019.57
2018-12-14T02:50:39.350Z,1019.62
2018-12-14T02:51:39.336Z,1019.58
2018-12-14T02:52:39.325Z,1019.63
2018-12-14T02:53:39.326Z,1019.63
2018-12-14T02:54:39.311Z,1019.59
2018-12-14T02:55:39.292Z,1019.62
2018-12-14T02:56:39.282Z,1019.63
2018-12-14T02:57:39.271Z,1019.59
2018-12-14T02:58:39.270Z,1019.58
2018-12-14T02:59:39.251Z,1019.64
2018-12-14T03:00:39.237Z,1019.57
2018-12-14T03:01:39.229Z,1019.61
2018-12-14T03:02:39.213Z,1019.59
2018-12-14T03:03:39.216Z,1019.62
2018-12-14T03:04:39.192Z,1019.61
2018-12-14T03:05:39.179Z,1019.61
2018-12-14T03:06:39.170Z,1019.57
2018-12-14T03:07:39.159Z,1019.57
2018-12-14T03:08:39.157Z,1019.61
2018-12-14T03:09:39.137Z,1019.60
2018-12-14T03:10:39.125Z,1019.56
2018-12-14T03:11:39.115Z,1019.62
2018-12-14T03:12:39.102Z,1019.59
2018-12-14T03:13:39.108Z,1019.56
2018-12-14T03:14:39.079Z,1019.61
2018-12-14T03:15:39.070Z,1019.55
2018-12-14T03:16:39.060Z,1019.53
2018-12-14T03:17:39.049Z,1019.53
2018-12-14T03:18:39.045Z,1019.58
2018-12-14T03:19:39.026Z,1019.54
2018-12-14T03:20:39.014Z,1019.56
2018-12-14T03:21:39.003Z,1019.60
2018-12-14T03:22:38.991Z,1019.60
2018-12-14T03:23:39.020Z,1019.56
2018-12-14T03:24:38.971Z,1019.57
2018-12-14T03:25:39.011Z,1019.54
2018-12-14T03:26:38.965Z,1019.56
2018-12-14T03:27:39.798Z,1019.59
2018-12-14T03:28:38.939Z,1019.56
2018-12-14T03:29:38.925Z,1019.55
2018-12-14T03:30:38.903Z,1019.56
2018-12-14T03:31:38.892Z,1019.63
2018-12-14T03:32:38.892Z,1019.60
2018-12-14T03:33:38.870Z,1019.57
2018-12-14T03:34:38.869Z,1019.58
2018-12-14T03:35:38.847Z,1019.57
2018-12-14T03:36:38.839Z,1019.56
2018-12-14T03:37:38.825Z,1019.58
2018-12-14T03:38:38.814Z,1019.66
2018-12-14T03:39:38.813Z,1019.62
2018-12-14T03:40:38.791Z,1019.66
2018-12-14T03:41:38.786Z,1019.64
2018-12-14T03:42:38.772Z,1019.60
2018-12-14T03:43:38.759Z,1019.56
2018-12-14T03:44:38.760Z,1019.59
2018-12-14T03:45:38.737Z,1019.59
2018-12-14T03:46:46.734Z,1019.60
2018-12-14T03:47:38.716Z,1019.58
2018-12-14T03:48:38.701Z,1019.58
2018-12-14T03:49:38.707Z,1019.59
2018-12-14T03:50:38.680Z,1019.58
2018-12-14T03:51:38.667Z,1019.61
2018-12-14T03:52:38.662Z,1019.56
2018-12-14T03:53:38.646Z,1019.51
2018-12-14T03:54:38.648Z,1019.50
2018-12-14T03:55:38.633Z,1019.52
2018-12-14T03:56:38.616Z,1019.53
2018-12-14T03:57:38.602Z,1019.58
2018-12-14T03:58:38.598Z,1019.49
2018-12-14T03:59:38.617Z,1019.53
2018-12-14T04:00:38.569Z,1019.54
2018-12-14T04:01:38.558Z,1019.54
2018-12-14T04:02:38.558Z,1019.55
2018-12-14T04:03:38.542Z,1019.53
2018-12-14T04:04:45.560Z,1019.51
2018-12-14T04:05:38.517Z,1019.51
2018-12-14T04:06:38.507Z,1019.55
2018-12-14T04:07:38.555Z,1019.54
2018-12-14T04:08:38.478Z,1019.57
2018-12-14T04:09:38.471Z,1019.55
2018-12-14T04:10:45.494Z,1019.56
2018-12-14T04:11:38.446Z,1019.56
2018-12-14T04:12:41.816Z,1019.58
2018-12-14T04:13:38.423Z,1019.57
2018-12-14T04:14:38.414Z,1019.56
2018-12-14T04:15:38.413Z,1019.53
2018-12-14T04:16:38.390Z,1019.54
2018-12-14T04:17:38.376Z,1019.55
2018-12-14T04:18:38.366Z,1019.57
2018-12-14T04:19:38.356Z,1019.61
2018-12-14T04:20:38.358Z,1019.58
2018-12-14T04:21:38.335Z,1019.64
2018-12-14T04:22:38.321Z,1019.66
2018-12-14T04:23:38.315Z,1019.60
2018-12-14T04:24:38.300Z,1019.64
2018-12-14T04:25:38.299Z,1019.62
2018-12-14T04:26:38.281Z,1019.61
2018-12-14T04:27:38.267Z,1019.63
2018-12-14T04:28:38.253Z,1019.63
2018-12-14T04:29:38.243Z,1019.63
2018-12-14T04:30:38.244Z,1019.65
2018-12-14T04:31:38.223Z,1019.61
2018-12-14T04:32:38.217Z,1019.70
2018-12-14T04:33:38.199Z,1019.62
2018-12-14T04:34:38.190Z,1019.64
2018-12-14T04:35:38.188Z,1019.67
2018-12-14T04:36:38.165Z,1019.67
2018-12-14T04:37:38.157Z,1019.64
2018-12-14T04:38:38.143Z,1019.65
2018-12-14T04:39:38.797Z,1019.62
2018-12-14T04:40:38.138Z,1019.62
2018-12-14T04:41:38.108Z,1019.67
2018-12-14T04:42:38.101Z,1019.63
2018-12-14T04:43:38.087Z,1019.61
2018-12-14T04:44:38.075Z,1019.59
2018-12-14T04:45:38.075Z,1019.64
2018-12-14T04:46:38.053Z,1019.59
2018-12-14T04:47:38.045Z,1019.62
2018-12-14T04:48:38.044Z,1019.68
2018-12-14T04:49:38.019Z,1019.66
2018-12-14T04:50:38.044Z,1019.64
2018-12-14T04:51:37.997Z,1019.61
2018-12-14T04:52:37.986Z,1019.62
2018-12-14T04:53:37.974Z,1019.62
2018-12-14T04:54:37.962Z,1019.65
2018-12-14T04:55:37.951Z,1019.64
2018-12-14T04:56:37.952Z,1019.70
2018-12-14T04:57:37.930Z,1019.63
2018-12-14T04:58:37.921Z,1019.64
2018-12-14T04:59:37.909Z,1019.69
2018-12-14T05:00:37.897Z,1019.66
2018-12-14T05:01:37.920Z,1019.65
2018-12-14T05:02:37.875Z,1019.65
2018-12-14T05:03:37.863Z,1019.61
2018-12-14T05:04:37.851Z,1019.60
2018-12-14T05:05:37.841Z,1019.60
2018-12-14T05:06:37.858Z,1019.59
2018-12-14T05:07:37.819Z,1019.59
2018-12-14T05:08:37.807Z,1019.61
2018-12-14T05:09:37.797Z,1019.60
2018-12-14T05:10:37.789Z,1019.58
2018-12-14T05:11:39.277Z,1019.62
2018-12-14T05:12:37.767Z,1019.69
2018-12-14T05:13:37.757Z,1019.63
2018-12-14T05:14:37.743Z,1019.62
2018-12-14T05:15:37.730Z,1019.64
2018-12-14T05:16:37.732Z,1019.62
2018-12-14T05:17:37.727Z,1019.64
2018-12-14T05:18:37.712Z,1019.62
2018-12-14T05:19:37.700Z,1019.66
2018-12-14T05:20:37.681Z,1019.66
2018-12-14T05:21:37.681Z,1019.63
2018-12-14T05:22:37.657Z,1019.65
2018-12-14T05:23:37.643Z,1019.65
2018-12-14T05:24:37.633Z,1019.63
2018-12-14T05:25:37.620Z,1019.63
2018-12-14T05:26:37.619Z,1019.68
2018-12-14T05:27:37.597Z,1019.66
2018-12-14T05:28:37.586Z,1019.65
2018-12-14T05:29:37.577Z,1019.69
2018-12-14T05:30:37.565Z,1019.73
2018-12-14T05:31:37.560Z,1019.72
2018-12-14T05:32:37.541Z,1019.73
2018-12-14T05:33:37.533Z,1019.71
2018-12-14T05:34:37.524Z,1019.73
2018-12-14T05:35:37.508Z,1019.71
2018-12-14T05:36:37.509Z,1019.77
2018-12-14T05:37:37.487Z,1019.71
2018-12-14T05:38:37.489Z,1019.76
2018-12-14T05:39:37.466Z,1019.72
2018-12-14T05:40:37.455Z,1019.78
2018-12-14T05:41:37.450Z,1019.78
2018-12-14T05:42:37.432Z,1019.74
2018-12-14T05:43:37.423Z,1019.79
2018-12-14T05:44:37.421Z,1019.76
2018-12-14T05:45:37.401Z,1019.84
2018-12-14T05:46:37.403Z,1019.83
2018-12-14T05:47:37.380Z,1019.80
2018-12-14T05:48:37.367Z,1019.78
2018-12-14T05:49:37.353Z,1019.77
2018-12-14T05:50:37.343Z,1019.74
2018-12-14T05:51:37.378Z,1019.77
2018-12-14T05:52:37.323Z,1019.77
2018-12-14T05:53:37.310Z,1019.75
2018-12-14T05:54:37.298Z,1019.76
2018-12-14T05:55:37.292Z,1019.77
2018-12-14T05:56:37.281Z,1019.74
2018-12-14T05:57:37.282Z,1019.80
2018-12-14T05:58:37.254Z,1019.81
2018-12-14T05:59:37.242Z,1019.75
2018-12-14T06:00:37.231Z,1019.80
2018-12-14T06:01:37.223Z,1019.83
2018-12-14T06:02:37.220Z,1019.81
2018-12-14T06:03:37.197Z,1019.83
2018-12-14T06:04:37.190Z,1019.83
2018-12-14T06:05:37.177Z,1019.84
2018-12-14T06:06:37.166Z,1019.83
2018-12-14T06:07:37.169Z,1019.81
2018-12-14T06:08:37.149Z,1019.88
2018-12-14T06:09:37.131Z,1019.90
2018-12-14T06:10:37.122Z,1019.87
2018-12-14T06:11:37.111Z,1019.87
2018-12-14T06:12:37.112Z,1019.92
2018-12-14T06:13:37.090Z,1019.90
2018-12-14T06:14:37.076Z,1019.95
2018-12-14T06:15:37.065Z,1019.92
2018-12-14T06:16:37.056Z,1019.92
2018-12-14T06:17:37.054Z,1019.94
2018-12-14T06:18:37.034Z,1019.92
2018-12-14T06:19:37.025Z,1019.87
2018-12-14T06:20:37.010Z,1019.88
2018-12-14T06:21:36.999Z,1019.90
2018-12-14T06:22:37.002Z,1019.94
2018-12-14T06:23:36.977Z,1019.95
2018-12-14T06:24:36.966Z,1019.97
2018-12-14T06:25:36.964Z,1019.94
2018-12-14T06:26:36.947Z,1020.00
2018-12-14T06:27:36.944Z,1019.95
2018-12-14T06:28:36.922Z,1020.00
2018-12-14T06:29:36.911Z,1019.96
2018-12-14T06:30:36.903Z,1019.99
2018-12-14T06:31:36.888Z,1020.03
2018-12-14T06:32:36.891Z,1020.04
2018-12-14T06:33:36.869Z,1020.05
2018-12-14T06:34:36.856Z,1020.07
2018-12-14T06:35:36.844Z,1020.05
2018-12-14T06:36:36.833Z,1020.06
2018-12-14T06:37:36.835Z,1020.04
2018-12-14T06:38:36.811Z,1020.05
2018-12-14T06:39:36.801Z,1020.11
2018-12-14T06:40:36.790Z,1020.06
2018-12-14T06:41:36.779Z,1020.11
2018-12-14T06:42:36.795Z,1020.13
2018-12-14T06:43:36.757Z,1020.14
2018-12-14T06:44:36.745Z,1020.15
2018-12-14T06:45:36.740Z,1020.20
2018-12-14T06:46:36.729Z,1020.17
2018-12-14T06:47:36.713Z,1020.17
2018-12-14T06:48:37.798Z,1020.16
2018-12-14T06:49:36.800Z,1020.18
2018-12-14T06:50:36.722Z,1020.19
2018-12-14T06:51:37.552Z,1020.23
2018-12-14T06:52:36.657Z,1020.28
2018-12-14T06:53:36.660Z,1020.28
2018-12-14T06:54:36.634Z,1020.29
2018-12-14T06:55:36.680Z,1020.27
2018-12-14T06:56:36.613Z,1020.29
2018-12-14T06:57:36.602Z,1020.29
2018-12-14T06:58:36.601Z,1020.33
2018-12-14T06:59:36.592Z,1020.31
2018-12-14T07:00:36.568Z,1020.28
2018-12-14T07:01:36.557Z,1020.26
2018-12-14T07:02:36.548Z,1020.26
2018-12-14T07:03:36.546Z,1020.21
2018-12-14T07:04:36.531Z,1020.25
2018-12-14T07:05:37.904Z,1020.26
2018-12-14T07:06:36.503Z,1020.29
2018-12-14T07:07:36.491Z,1020.27
2018-12-14T07:08:36.490Z,1020.28
2018-12-14T07:09:36.474Z,1020.29
2018-12-14T07:10:36.458Z,1020.28
2018-12-14T07:11:36.445Z,1020.32
2018-12-14T07:12:36.434Z,1020.36
2018-12-14T07:13:36.433Z,1020.32
2018-12-14T07:14:36.411Z,1020.30
2018-12-14T07:15:36.404Z,1020.34
2018-12-14T07:16:36.397Z,1020.38
2018-12-14T07:17:36.381Z,1020.44
2018-12-14T07:18:36.376Z,1020.39
2018-12-14T07:19:36.355Z,1020.36
2018-12-14T07:20:36.346Z,1020.37
2018-12-14T07:21:36.336Z,1020.42
2018-12-14T07:22:36.323Z,1020.40
2018-12-14T07:23:36.324Z,1020.40
2018-12-14T07:24:36.327Z,1020.41
2018-12-14T07:25:36.288Z,1020.41
2018-12-14T07:26:36.278Z,1020.43
2018-12-14T07:27:36.267Z,1020.42
2018-12-14T07:28:36.802Z,1020.34
2018-12-14T07:29:36.244Z,1020.39
2018-12-14T07:30:36.231Z,1020.34
2018-12-14T07:31:36.222Z,1020.37
2018-12-14T07:32:38.098Z,1020.39
2018-12-14T07:33:36.198Z,1020.36
2018-12-14T07:34:36.197Z,1020.37
2018-12-14T07:35:41.683Z,1020.39
2018-12-14T07:36:37.166Z,1020.34
2018-12-14T07:37:36.155Z,1020.42
2018-12-14T07:38:36.142Z,1020.45
2018-12-14T07:39:39.327Z,1020.55
2018-12-14T07:40:37.395Z,1020.51
2018-12-14T07:41:36.302Z,1020.54
2018-12-14T07:42:36.322Z,1020.51
2018-12-14T07:43:36.089Z,1020.53
2018-12-14T07:44:36.280Z,1020.50
2018-12-14T07:45:36.065Z,1020.51
2018-12-14T07:46:36.052Z,1020.54
2018-12-14T07:47:36.042Z,1020.56
2018-12-14T07:48:36.031Z,1020.52
2018-12-14T07:49:36.030Z,1020.51
2018-12-14T07:50:36.010Z,1020.55
2018-12-14T07:51:35.997Z,1020.51
2018-12-14T07:52:35.987Z,1020.54
2018-12-14T07:53:35.975Z,1020.54
2018-12-14T07:54:35.974Z,1020.55
2018-12-14T07:55:35.953Z,1020.58
2018-12-14T07:56:35.943Z,1020.55
2018-12-14T07:57:35.932Z,1020.61
2018-12-14T07:58:35.920Z,1020.64
2018-12-14T07:59:35.908Z,1020.67
2018-12-14T08:00:36.862Z,1020.66
2018-12-14T08:01:35.887Z,1020.66
2018-12-14T08:02:35.876Z,1020.68
2018-12-14T08:03:35.865Z,1020.67
2018-12-14T08:04:35.854Z,1020.71
2018-12-14T08:05:35.858Z,1020.68
2018-12-14T08:06:35.832Z,1020.75
2018-12-14T08:07:35.821Z,1020.72
2018-12-14T08:08:35.810Z,1020.63
2018-12-14T08:09:35.798Z,1020.68
2018-12-14T08:10:35.797Z,1020.71
2018-12-14T08:11:35.777Z,1020.71
2018-12-14T08:12:35.766Z,1020.72
2018-12-14T08:13:35.822Z,1020.75
2018-12-14T08:14:35.744Z,1020.73
2018-12-14T08:15:35.742Z,1020.77
2018-12-14T08:16:35.722Z,1020.78
2018-12-14T08:17:35.717Z,1020.83
2018-12-14T08:18:35.698Z,1020.80
2018-12-14T08:19:35.687Z,1020.78
2018-12-14T08:20:35.688Z,1020.82
2018-12-14T08:21:35.665Z,1020.81
2018-12-14T08:22:35.654Z,1020.85
2018-12-14T08:23:35.642Z,1020.84
2018-12-14T08:24:35.634Z,1020.84
2018-12-14T08:25:35.822Z,1020.86
2018-12-14T08:26:35.609Z,1020.85
2018-12-14T08:27:35.600Z,1020.86
2018-12-14T08:28:35.588Z,1020.86
2018-12-14T08:29:35.681Z,1020.84
2018-12-14T08:30:35.577Z,1020.86
2018-12-14T08:31:35.554Z,1020.91
2018-12-14T08:32:35.543Z,1020.86
2018-12-14T08:33:35.530Z,1020.93
2018-12-14T08:34:35.521Z,1020.88
2018-12-14T08:35:35.521Z,1020.89
2018-12-14T08:36:35.499Z,1020.91
2018-12-14T08:37:35.488Z,1020.91
2018-12-14T08:38:35.476Z,1020.97
2018-12-14T08:39:35.465Z,1020.95
2018-12-14T08:40:35.462Z,1020.93
2018-12-14T08:41:35.464Z,1020.94
2018-12-14T08:42:35.430Z,1020.93
2018-12-14T08:43:41.255Z,1020.94
2018-12-14T08:44:36.407Z,1020.97
2018-12-14T08:45:35.428Z,1020.97
2018-12-14T08:46:35.387Z,1020.94
2018-12-14T08:47:35.379Z,1021.00
2018-12-14T08:48:35.365Z,1020.97
2018-12-14T08:49:35.544Z,1021.00
2018-12-14T08:50:35.341Z,1021.05
2018-12-14T08:51:35.342Z,1021.02
2018-12-14T08:52:35.398Z,1020.99
2018-12-14T08:53:35.307Z,1021.00
2018-12-14T08:54:35.296Z,1021.06
2018-12-14T08:55:35.284Z,1021.09
2018-12-14T08:56:35.284Z,1021.06
2018-12-14T08:57:35.266Z,1021.09
2018-12-14T08:58:35.254Z,1021.12
2018-12-14T08:59:35.238Z,1021.10
2018-12-14T09:00:35.227Z,1021.13
2018-12-14T09:01:35.231Z,1021.12
2018-12-14T09:02:35.214Z,1021.11
2018-12-14T09:03:35.194Z,1021.13
2018-12-14T09:04:35.186Z,1021.16
2018-12-14T09:05:35.172Z,1021.12
2018-12-14T09:06:35.170Z,1021.17
2018-12-14T09:07:35.151Z,1021.21
2018-12-14T09:08:35.140Z,1021.19
2018-12-14T09:09:35.127Z,1021.23
2018-12-14T09:10:35.116Z,1021.34
2018-12-14T09:11:35.115Z,1021.22
2018-12-14T09:12:35.093Z,1021.21
2018-12-14T09:13:35.089Z,1021.27
2018-12-14T09:14:35.072Z,1021.23
2018-12-14T09:15:35.062Z,1021.21
2018-12-14T09:16:35.063Z,1021.23
2018-12-14T09:17:35.041Z,1021.22
2018-12-14T09:18:35.024Z,1021.22
2018-12-14T09:19:35.012Z,1021.21
2018-12-14T09:20:35.006Z,1021.22
2018-12-14T09:21:35.001Z,1021.18
2018-12-14T09:22:34.979Z,1021.24
2018-12-14T09:23:34.969Z,1021.22
2018-12-14T09:24:34.958Z,1021.22
2018-12-14T09:25:34.952Z,1021.26
2018-12-14T09:26:34.944Z,1021.25
2018-12-14T09:27:34.923Z,1021.28
2018-12-14T09:28:34.911Z,1021.30
2018-12-14T09:29:34.902Z,1021.29
2018-12-14T09:30:34.890Z,1021.29
2018-12-14T09:31:34.891Z,1021.27
2018-12-14T09:32:34.867Z,1021.27
2018-12-14T09:33:34.855Z,1021.24
2018-12-14T09:34:34.844Z,1021.29
2018-12-14T09:35:34.836Z,1021.31
2018-12-14T09:36:34.865Z,1021.28
2018-12-14T09:37:34.813Z,1021.32
2018-12-14T09:38:34.803Z,1021.36
2018-12-14T09:39:34.788Z,1021.31
2018-12-14T09:40:34.776Z,1021.30
2018-12-14T09:41:34.769Z,1021.33
2018-12-14T09:42:34.780Z,1021.32
2018-12-14T09:43:34.742Z,1021.35
2018-12-14T09:44:34.728Z,1021.31
2018-12-14T09:45:34.720Z,1021.33
2018-12-14T09:46:37.280Z,1021.29
2018-12-14T09:47:34.711Z,1021.27
2018-12-14T09:48:34.687Z,1021.33
2018-12-14T09:49:34.674Z,1021.32
2018-12-14T09:50:34.664Z,1021.27
2018-12-14T09:51:34.652Z,1021.28
2018-12-14T09:52:34.653Z,1021.29
2018-12-14T09:53:34.629Z,1021.28
2018-12-14T09:54:34.620Z,1021.25
2018-12-14T09:55:34.614Z,1021.27
2018-12-14T09:56:34.596Z,1021.31
2018-12-14T09:57:34.597Z,1021.23
2018-12-14T09:58:34.572Z,1021.33
2018-12-14T09:59:34.562Z,1021.28
2018-12-14T10:00:34.550Z,1021.27
2018-12-14T10:01:34.535Z,1021.30
2018-12-14T10:02:34.539Z,1021.29
2018-12-14T10:03:34.519Z,1021.30
2018-12-14T10:04:34.506Z,1021.29
2018-12-14T10:05:34.498Z,1021.26
2018-12-14T10:06:34.486Z,1021.27
2018-12-14T10:07:34.482Z,1021.27
2018-12-14T10:08:34.460Z,1021.28
2018-12-14T10:09:34.447Z,1021.28
2018-12-14T10:10:34.437Z,1021.28
2018-12-14T10:11:34.425Z,1021.30
2018-12-14T10:12:34.424Z,1021.27
2018-12-14T10:13:34.403Z,1021.27
2018-12-14T10:14:34.395Z,1021.31
2018-12-14T10:15:34.387Z,1021.36
2018-12-14T10:16:34.368Z,1021.31
2018-12-14T10:17:34.370Z,1021.33
2018-12-14T10:18:34.345Z,1021.32
2018-12-14T10:19:34.335Z,1021.28
2018-12-14T10:20:34.328Z,1021.34
2018-12-14T10:21:34.315Z,1021.32
2018-12-14T10:22:34.311Z,1021.31
2018-12-14T10:23:34.290Z,1021.32
2018-12-14T10:24:34.279Z,1021.28
2018-12-14T10:25:34.268Z,1021.28
2018-12-14T10:26:34.255Z,1021.29
2018-12-14T10:27:34.275Z,1021.30
2018-12-14T10:28:34.233Z,1021.29
2018-12-14T10:29:34.222Z,1021.29
2018-12-14T10:30:34.211Z,1021.34
2018-12-14T10:31:34.201Z,1021.33
2018-12-14T10:32:34.195Z,1021.31
2018-12-14T10:33:34.190Z,1021.29
2018-12-14T10:34:34.169Z,1021.35
2018-12-14T10:35:34.157Z,1021.33
2018-12-14T10:36:34.142Z,1021.30
2018-12-14T10:37:34.131Z,1021.31
2018-12-14T10:38:34.138Z,1021.29
2018-12-14T10:39:34.110Z,1021.30
2018-12-14T10:40:34.098Z,1021.31
2018-12-14T10:41:34.087Z,1021.30
2018-12-14T10:42:34.076Z,1021.30
2018-12-14T10:43:34.080Z,1021.32
2018-12-14T10:44:34.053Z,1021.30
2018-12-14T10:45:34.040Z,1021.27
2018-12-14T10:46:34.031Z,1021.30
2018-12-14T10:47:34.019Z,1021.31
2018-12-14T10:48:34.019Z,1021.27
2018-12-14T10:49:33.996Z,1021.31
2018-12-14T10:50:39.197Z,1021.30
2018-12-14T10:51:34.975Z,1021.35
2018-12-14T10:52:33.963Z,1021.30
2018-12-14T10:53:33.962Z,1021.27
2018-12-14T10:54:33.950Z,1021.27
2018-12-14T10:55:33.929Z,1021.37
2018-12-14T10:56:33.920Z,1021.28
2018-12-14T10:57:33.909Z,1021.25
2018-12-14T10:58:33.906Z,1021.28
2018-12-14T10:59:33.885Z,1021.25
2018-12-14T11:00:33.878Z,1021.32
2018-12-14T11:01:33.863Z,1021.29
2018-12-14T11:02:33.854Z,1021.32
2018-12-14T11:03:33.850Z,1021.30
2018-12-14T11:04:33.828Z,1021.29
2018-12-14T11:05:33.817Z,1021.28
2018-12-14T11:06:33.805Z,1021.26
2018-12-14T11:07:33.821Z,1021.28
2018-12-14T11:08:33.795Z,1021.35
2018-12-14T11:09:33.772Z,1021.28
2018-12-14T11:10:33.762Z,1021.24
2018-12-14T11:11:33.751Z,1021.29
2018-12-14T11:12:33.738Z,1021.28
2018-12-14T11:13:33.764Z,1021.23
2018-12-14T11:14:33.715Z,1021.31
2018-12-14T11:15:33.706Z,1021.29
2018-12-14T11:16:33.699Z,1021.36
2018-12-14T11:17:33.682Z,1021.32
2018-12-14T11:18:33.673Z,1021.30
2018-12-14T11:19:33.670Z,1021.37
2018-12-14T11:20:33.648Z,1021.33
2018-12-14T11:21:33.637Z,1021.36
2018-12-14T11:22:33.626Z,1021.33
2018-12-14T11:23:33.615Z,1021.37
2018-12-14T11:24:33.613Z,1021.35
2018-12-14T11:25:33.593Z,1021.36
2018-12-14T11:26:33.581Z,1021.35
2018-12-14T11:27:33.571Z,1021.34
2018-12-14T11:28:33.558Z,1021.38
2018-12-14T11:29:33.557Z,1021.34
2018-12-14T11:30:33.536Z,1021.38
2018-12-14T11:31:33.526Z,1021.35
2018-12-14T11:32:33.512Z,1021.36
2018-12-14T11:33:34.542Z,1021.38
2018-12-14T11:34:33.503Z,1021.44
2018-12-14T11:35:33.480Z,1021.38
2018-12-14T11:36:33.473Z,1021.38
2018-12-14T11:37:33.459Z,1021.36
2018-12-14T11:38:33.447Z,1021.38
2018-12-14T11:39:33.446Z,1021.40
2018-12-14T11:40:33.424Z,1021.40
2018-12-14T11:41:33.412Z,1021.38
2018-12-14T11:42:33.401Z,1021.45
2018-12-14T11:43:33.390Z,1021.44
2018-12-14T11:44:33.391Z,1021.40
2018-12-14T11:45:33.390Z,1021.46
2018-12-14T11:46:33.354Z,1021.42
2018-12-14T11:47:33.346Z,1021.42
2018-12-14T11:48:33.333Z,1021.47
2018-12-14T11:49:33.333Z,1021.48
2018-12-14T11:50:33.310Z,1021.44
2018-12-14T11:51:33.298Z,1021.47
2018-12-14T11:52:33.290Z,1021.52
2018-12-14T11:53:33.276Z,1021.52
2018-12-14T11:54:33.297Z,1021.51
2018-12-14T11:55:33.260Z,1021.54
2018-12-14T11:56:33.244Z,1021.51
2018-12-14T11:57:33.231Z,1021.54
2018-12-14T11:58:33.218Z,1021.49
2018-12-14T11:59:33.209Z,1021.54
2018-12-14T12:00:33.210Z,1021.48
2018-12-14T12:01:33.188Z,1021.51
2018-12-14T12:02:33.173Z,1021.52
2018-12-14T12:03:33.162Z,1021.51
2018-12-14T12:04:33.152Z,1021.47
2018-12-14T12:05:33.149Z,1021.48